Alden, New York
Current Conditions -  °F | °C
As of 3:54 PM on Thursday 23 Oct 2014 (Local Time) from KBUF Reporting Station
Few Clouds Few Clouds  
Wind Chill: 59°   Ceiling: Unl
Heat Index: 59°   Visibility: 10mi
Dew Point: 40°   Wind: 9mph
Humidity: 49%   Direction: 300°WNW
Pressure: 30.05"   Gusts: NA
Location:  42.9°N, 78.49°W
Report Text: KBUF 231954Z 30008KT 10SM FEW041 FEW065 15/04 A3005 RMK AO2 SLP177 T01500044
Loading
Personal Weather Stations






























Interactive Weather Map
Tropical Storm Tracking
New forecast layout! Learn more

10-Day Weather Forecast

Advertisements
Track Severe Weather on mobile